Time;durP1;ratioP1;P1;durP2;ratioP2;P2;SDS_P1;SDS_P2;PMS_P1;PMS_P2;Temp;Humidity;BMP_temperature;BMP_pressure;BME280_temperature;BME280_humidity;BME280_pressure;Samples;Min_cycle;Max_cycle;Signal;HPM_P1;HPM_P2
2023/10/07 00:01:16;;;;;;;23.83;5.68;;;;;;;17.14;100.00;102097.41;5067892;28;20417;-68
2023/10/07 00:03:42;;;;;;;19.75;5.07;;;;;;;17.15;100.00;102099.13;5067740;28;20407;-68
2023/10/07 00:06:10;;;;;;;18.77;4.63;;;;;;;17.20;100.00;102095.38;5068161;28;20055;-68
2023/10/07 00:08:35;;;;;;;15.90;5.57;;;;;;;17.23;100.00;102081.94;5067853;28;20051;-67
2023/10/07 00:11:01;;;;;;;21.98;5.30;;;;;;;17.26;100.00;102079.16;5068674;28;20028;-67
2023/10/07 00:13:30;;;;;;;22.48;4.85;;;;;;;17.30;100.00;102083.41;5067949;28;20054;-68
2023/10/07 00:15:56;;;;;;;23.63;5.47;;;;;;;17.27;100.00;102081.75;5068172;28;20085;-68
2023/10/07 00:18:23;;;;;;;21.67;5.50;;;;;;;17.29;100.00;102085.22;5068201;28;20016;-68
2023/10/07 00:20:55;;;;;;;24.85;5.15;;;;;;;17.22;100.00;102089.06;5067774;28;20082;-69
2023/10/07 00:23:28;;;;;;;21.00;5.13;;;;;;;17.33;100.00;102080.63;5069214;28;20452;-68
2023/10/07 00:25:56;;;;;;;16.38;4.97;;;;;;;17.34;100.00;102070.84;5068168;28;20024;-67
2023/10/07 00:28:32;;;;;;;28.23;5.05;;;;;;;17.30;100.00;102064.75;5068694;28;20028;-68
2023/10/07 00:31:05;;;;;;;27.30;4.88;;;;;;;17.30;100.00;102062.09;5067622;28;20524;-67
2023/10/07 00:33:46;;;;;;;20.58;5.03;;;;;;;17.35;100.00;102053.91;5052148;28;20039;-68
2023/10/07 00:36:14;;;;;;;21.38;5.15;;;;;;;17.35;100.00;102051.25;5069528;28;20028;-68
2023/10/07 00:38:41;;;;;;;24.00;5.57;;;;;;;17.35;100.00;102064.56;5070945;28;20563;-68
2023/10/07 00:41:07;;;;;;;24.90;5.38;;;;;;;17.37;100.00;102063.56;5054444;28;20357;-67
2023/10/07 00:43:32;;;;;;;19.83;5.30;;;;;;;17.38;100.00;102060.00;5049559;28;20036;-65
2023/10/07 00:48:52;;;;;;;23.13;5.07;;;;;;;17.41;100.00;102073.19;5069729;28;20463;-72
2023/10/07 00:51:24;;;;;;;22.55;4.32;;;;;;;17.43;100.00;102086.44;5068807;28;20088;-66
2023/10/07 00:54:01;;;;;;;20.60;4.70;;;;;;;17.40;100.00;102083.91;5069339;28;20025;-67
2023/10/07 00:56:27;;;;;;;25.73;5.20;;;;;;;17.42;100.00;102090.00;5051925;28;20040;-66
2023/10/07 00:58:53;;;;;;;19.23;4.47;;;;;;;17.46;100.00;102082.75;5050729;28;20033;-65
2023/10/07 01:01:19;;;;;;;20.77;5.35;;;;;;;17.45;100.00;102079.22;5068148;28;20032;-66
2023/10/07 01:06:25;;;;;;;16.35;5.25;;;;;;;17.48;100.00;102084.44;5085197;28;20051;-67
2023/10/07 01:09:10;;;;;;;16.42;5.38;;;;;;;17.53;100.00;102086.88;5087615;28;20489;-69
2023/10/07 01:11:45;;;;;;;16.58;4.47;;;;;;;17.55;100.00;102085.03;5088817;28;20024;-68
2023/10/07 01:14:12;;;;;;;22.98;4.97;;;;;;;17.56;100.00;102089.41;5088359;28;20073;-67
2023/10/07 01:16:40;;;;;;;22.80;5.15;;;;;;;17.51;100.00;102075.41;5088119;28;20135;-68
2023/10/07 01:21:49;;;;;;;14.32;4.50;;;;;;;17.58;100.00;102074.22;5090598;28;20040;-67
2023/10/07 01:24:15;;;;;;;20.60;5.13;;;;;;;17.52;100.00;102074.50;5091691;28;20031;-67
2023/10/07 01:26:44;;;;;;;20.33;4.38;;;;;;;17.54;100.00;102077.94;5092279;28;20110;-69
2023/10/07 01:29:15;;;;;;;17.95;5.10;;;;;;;17.59;100.00;102077.75;5091574;28;20035;-68
2023/10/07 01:31:59;;;;;;;17.17;4.10;;;;;;;17.62;100.00;102070.50;5092092;28;20028;-67
2023/10/07 01:34:25;;;;;;;11.50;4.07;;;;;;;17.62;100.00;102059.84;5072015;28;20025;-66
2023/10/07 01:36:51;;;;;;;15.02;4.47;;;;;;;17.66;100.00;102060.56;5070303;28;20087;-68
2023/10/07 01:39:17;;;;;;;21.27;4.05;;;;;;;17.67;100.00;102071.16;5070063;28;20025;-67
2023/10/07 01:41:42;;;;;;;18.23;4.75;;;;;;;17.63;100.00;102072.22;5071808;28;20089;-67
2023/10/07 01:44:08;;;;;;;18.08;4.25;;;;;;;17.67;100.00;102063.16;5073692;28;20030;-68
2023/10/07 01:46:34;;;;;;;15.73;4.03;;;;;;;17.73;100.00;102067.34;5091437;28;20062;-69
2023/10/07 01:49:17;;;;;;;17.27;4.15;;;;;;;17.78;100.00;102075.13;5089908;28;20481;-68
2023/10/07 01:51:45;;;;;;;11.55;3.60;;;;;;;17.84;100.00;102068.66;5091433;28;20531;-68
2023/10/07 01:54:11;;;;;;;9.00;3.90;;;;;;;17.81;100.00;102051.00;5091710;28;20038;-67
2023/10/07 01:56:38;;;;;;;9.15;3.50;;;;;;;17.92;100.00;102058.53;5091074;28;21108;-68
2023/10/07 02:01:35;;;;;;;17.15;3.72;;;;;;;18.00;100.00;102055.50;5088687;28;20119;-66
2023/10/07 02:04:06;;;;;;;13.88;4.18;;;;;;;18.00;100.00;102058.19;5090858;28;20103;-69
2023/10/07 02:06:42;;;;;;;12.10;4.07;;;;;;;18.05;100.00;102056.16;5088909;28;20493;-68
2023/10/07 02:09:07;;;;;;;13.63;3.47;;;;;;;18.01;100.00;102058.09;5089370;28;20020;-69
2023/10/07 02:11:36;;;;;;;15.48;3.78;;;;;;;17.96;100.00;102056.56;5090740;28;20516;-71
2023/10/07 02:14:02;;;;;;;17.83;4.03;;;;;;;17.96;100.00;102049.44;5089381;28;20051;-70
2023/10/07 02:16:27;;;;;;;20.30;4.40;;;;;;;17.97;100.00;102052.97;5090311;28;20070;-66
2023/10/07 02:18:53;;;;;;;20.65;4.93;;;;;;;18.01;100.00;102051.91;5090310;28;20076;-68
2023/10/07 02:21:22;;;;;;;17.80;4.32;;;;;;;18.04;100.00;102049.97;5090093;28;20024;-69
2023/10/07 02:23:49;;;;;;;11.98;4.55;;;;;;;18.02;100.00;102042.94;5090433;28;20027;-67
2023/10/07 02:28:44;;;;;;;14.90;3.77;;;;;;;18.02;100.00;102050.94;5090175;28;20043;-68
2023/10/07 02:31:15;;;;;;;17.42;4.57;;;;;;;17.98;100.00;102042.25;5089424;28;20790;-69
2023/10/07 02:33:51;;;;;;;17.60;4.72;;;;;;;17.98;100.00;102044.03;5089445;28;20032;-67
2023/10/07 02:36:36;;;;;;;15.30;3.78;;;;;;;17.94;100.00;102051.31;5089383;28;20107;-68
2023/10/07 02:39:05;;;;;;;18.70;4.28;;;;;;;18.02;100.00;102038.50;5089387;28;20023;-66
2023/10/07 02:41:31;;;;;;;18.60;4.25;;;;;;;18.02;100.00;102042.94;5089694;28;20055;-68
2023/10/07 02:44:15;;;;;;;21.60;4.60;;;;;;;18.01;100.00;102042.09;5088414;28;20024;-67
2023/10/07 02:46:40;;;;;;;17.23;4.60;;;;;;;18.00;100.00;102047.50;5090313;28;20120;-68
2023/10/07 02:49:06;;;;;;;16.95;4.55;;;;;;;17.98;100.00;102038.72;5088692;28;20111;-68
2023/10/07 02:51:37;;;;;;;15.38;4.00;;;;;;;17.94;100.00;102033.50;5089926;28;20538;-68
2023/10/07 02:54:15;;;;;;;23.63;4.68;;;;;;;17.98;100.00;102030.72;5088881;28;20024;-67
2023/10/07 02:56:44;;;;;;;14.05;4.43;;;;;;;17.96;100.00;102027.22;5090001;28;20481;-67
2023/10/07 02:59:33;;;;;;;21.80;4.45;;;;;;;17.98;100.00;102038.72;5088381;28;20556;-68
2023/10/07 03:02:22;;;;;;;15.15;4.22;;;;;;;18.01;100.00;102030.56;5088650;28;20118;-67
2023/10/07 03:05:13;;;;;;;19.27;4.72;;;;;;;17.96;100.00;102025.44;5088832;28;20094;-66
2023/10/07 03:07:49;;;;;;;15.63;4.60;;;;;;;17.95;100.00;102034.38;5089545;28;20149;-66
2023/10/07 03:13:19;;;;;;;17.17;4.13;;;;;;;17.91;100.00;102044.31;5046903;28;20021;-69
2023/10/07 03:15:46;;;;;;;18.17;4.45;;;;;;;17.94;100.00;102033.50;5045356;28;20021;-69
2023/10/07 03:18:30;;;;;;;13.07;4.07;;;;;;;17.93;100.00;102037.13;5065911;28;20198;-67
2023/10/07 03:21:10;;;;;;;12.27;4.82;;;;;;;17.97;100.00;102036.97;5088402;28;20653;-65
2023/10/07 03:23:45;;;;;;;17.65;4.35;;;;;;;17.95;100.00;102034.38;5087543;28;20460;-66
2023/10/07 03:26:12;;;;;;;14.13;4.18;;;;;;;17.94;100.00;102036.19;5088732;28;20031;-69
2023/10/07 03:28:38;;;;;;;20.67;4.45;;;;;;;17.90;100.00;102034.59;5088139;28;20035;-67
2023/10/07 03:31:10;;;;;;;14.07;4.82;;;;;;;17.94;100.00;102032.63;5087761;28;20043;-69
2023/10/07 03:33:45;;;;;;;10.85;3.88;;;;;;;17.90;100.00;102042.59;5088477;28;20028;-67
2023/10/07 03:38:50;;;;;;;15.13;4.03;;;;;;;17.90;100.00;102031.94;5087466;28;20035;-67
2023/10/07 03:41:17;;;;;;;11.73;3.88;;;;;;;17.88;100.00;102041.78;5087945;28;20036;-66
2023/10/07 03:43:42;;;;;;;18.50;4.97;;;;;;;17.84;100.00;102028.66;5087441;28;20101;-67
2023/10/07 03:46:08;;;;;;;15.43;4.10;;;;;;;17.91;100.00;102031.00;5086728;28;20529;-67
2023/10/07 03:48:34;;;;;;;18.45;4.05;;;;;;;17.94;100.00;102025.50;5087675;28;20032;-67
2023/10/07 03:51:04;;;;;;;12.23;4.00;;;;;;;17.90;100.00;102025.72;5086619;28;20016;-66
2023/10/07 03:53:32;;;;;;;22.48;4.68;;;;;;;17.90;100.00;102026.59;5088070;28;20032;-69
2023/10/07 03:56:00;;;;;;;18.13;4.13;;;;;;;17.87;100.00;102034.72;5087509;28;20047;-67
2023/10/07 03:58:27;;;;;;;21.27;4.78;;;;;;;17.89;100.00;102027.53;5087244;28;20027;-69
2023/10/07 04:00:54;;;;;;;16.15;4.10;;;;;;;17.85;100.00;102030.41;5086811;28;20371;-68
2023/10/07 04:03:23;;;;;;;19.33;4.70;;;;;;;17.87;100.00;102026.75;5087077;28;20032;-66
2023/10/07 04:05:49;;;;;;;;;;;;;;;17.91;100.00;102036.31;5087303;28;20515;-66
2023/10/07 04:08:14;;;;;;;24.27;4.63;;;;;;;17.88;100.00;102025.78;5087507;28;19912;-68
2023/10/07 04:10:45;;;;;;;18.75;4.82;;;;;;;17.88;100.00;102028.47;5087853;28;20485;-67
2023/10/07 04:13:21;;;;;;;17.45;4.07;;;;;;;17.93;100.00;102025.59;5087560;28;20024;-69
2023/10/07 04:15:51;;;;;;;19.60;4.55;;;;;;;17.91;100.00;102031.00;5086493;28;20020;-65
2023/10/07 04:18:17;;;;;;;13.52;3.83;;;;;;;17.92;100.00;102019.41;5086721;28;20028;-68
2023/10/07 04:23:21;;;;;;;11.35;4.03;;;;;;;17.94;100.00;102021.97;5086051;28;20036;-66
2023/10/07 04:25:47;;;;;;;20.50;3.90;;;;;;;17.91;100.00;102011.47;5086503;28;20099;-67
2023/10/07 04:28:16;;;;;;;18.77;3.72;;;;;;;17.92;100.00;102011.41;5087873;28;20031;-67
2023/10/07 04:30:47;;;;;;;13.35;3.72;;;;;;;17.90;100.00;102009.72;5086855;28;20039;-66
2023/10/07 04:33:14;;;;;;;21.08;4.43;;;;;;;17.83;100.00;102013.63;5087747;28;20024;-67
2023/10/07 04:35:40;;;;;;;20.00;4.65;;;;;;;17.86;100.00;102014.34;5087983;28;20099;-66
2023/10/07 04:46:23;;;;;;;18.85;5.25;;;;;;;17.74;100.00;102001.56;5088177;28;20024;-66
2023/10/07 04:48:56;;;;;;;10.70;3.72;;;;;;;17.70;100.00;102013.31;5087808;28;20077;-65
2023/10/07 04:51:46;;;;;;;17.00;4.53;;;;;;;17.65;100.00;102009.06;5084237;28;20051;-66
2023/10/07 04:54:12;;;;;;;20.10;4.43;;;;;;;17.61;100.00;102004.78;5086053;28;20047;-66
2023/10/07 04:56:39;;;;;;;16.08;4.47;;;;;;;17.53;100.00;101999.84;5087003;28;20024;-68
2023/10/07 04:59:09;;;;;;;15.80;4.00;;;;;;;17.57;100.00;102008.53;5087439;28;20024;-67
2023/10/07 05:01:35;;;;;;;15.82;3.95;;;;;;;17.55;100.00;102005.94;5086559;28;20028;-67
2023/10/07 05:04:04;;;;;;;16.88;4.07;;;;;;;17.58;100.00;101993.44;5086947;28;20085;-66
2023/10/07 05:06:35;;;;;;;;;;;;;;;17.59;100.00;102001.34;5087512;28;20024;-67
2023/10/07 05:09:10;;;;;;;12.57;3.75;;;;;;;17.56;100.00;101996.16;5088201;28;19965;-66
2023/10/07 05:11:47;;;;;;;21.25;4.88;;;;;;;17.54;100.00;101998.00;5087598;28;20063;-69
2023/10/07 05:14:17;;;;;;;16.10;3.47;;;;;;;17.57;100.00;102000.53;5085848;28;20103;-60
2023/10/07 05:16:46;;;;;;;10.68;3.72;;;;;;;17.54;100.00;102012.22;5085486;28;20115;-63
2023/10/07 05:19:22;;;;;;;15.20;3.88;;;;;;;17.59;100.00;102020.00;5086557;28;20373;-66
2023/10/07 05:22:14;;;;;;;24.50;4.28;;;;;;;17.58;100.00;102030.72;5084776;28;20046;-65
2023/10/07 05:24:41;;;;;;;16.48;3.92;;;;;;;17.53;100.00;102038.94;5087185;28;20584;-64
2023/10/07 05:27:06;;;;;;;12.75;3.45;;;;;;;17.50;100.00;102039.94;5086295;28;20064;-66
2023/10/07 05:29:32;;;;;;;15.75;3.80;;;;;;;17.55;100.00;102034.41;5084649;28;20048;-70
2023/10/07 05:31:57;;;;;;;21.73;4.20;;;;;;;17.57;100.00;102037.00;5086915;28;20474;-64
2023/10/07 05:34:28;;;;;;;10.70;3.10;;;;;;;17.55;100.00;102031.75;5085930;28;20108;-62
2023/10/07 05:36:57;;;;;;;14.02;3.95;;;;;;;17.55;100.00;102034.41;5065590;28;20032;-65
2023/10/07 05:39:23;;;;;;;19.25;4.05;;;;;;;17.60;100.00;102020.84;5079832;28;20142;-60
2023/10/07 05:41:49;;;;;;;13.05;3.90;;;;;;;17.62;100.00;102024.31;5085655;28;20124;-68
2023/10/07 05:44:15;;;;;;;14.90;3.85;;;;;;;17.60;100.00;102029.72;5084163;28;20048;-67
2023/10/07 05:46:42;;;;;;;12.98;4.43;;;;;;;17.58;100.00;102030.72;5086063;28;20020;-68
2023/10/07 05:49:10;;;;;;;14.02;3.40;;;;;;;17.60;100.00;102040.38;5085398;28;20038;-67
2023/10/07 05:51:36;;;;;;;14.63;3.40;;;;;;;17.54;100.00;102040.66;5084758;28;20470;-61
2023/10/07 05:54:02;;;;;;;19.55;4.40;;;;;;;17.55;100.00;102042.41;5083477;28;20080;-64
2023/10/07 05:56:28;;;;;;;15.85;4.05;;;;;;;17.55;100.00;102037.91;5085634;28;20031;-67
2023/10/07 05:58:54;;;;;;;21.90;4.40;;;;;;;17.58;100.00;102020.91;5085218;28;20028;-69
2023/10/07 06:01:20;;;;;;;16.52;4.45;;;;;;;17.59;100.00;102019.13;5085967;28;20052;-63
2023/10/07 06:03:46;;;;;;;19.65;3.78;;;;;;;17.61;100.00;102015.44;5087018;28;20082;-63
2023/10/07 06:06:14;;;;;;;15.00;4.03;;;;;;;17.58;100.00;102020.06;5089919;28;20036;-64
2023/10/07 06:08:40;;;;;;;18.08;4.05;;;;;;;17.56;100.00;102025.47;5087651;28;20124;-66
2023/10/07 06:11:10;;;;;;;17.02;4.00;;;;;;;17.61;100.00;102026.13;5089497;28;20103;-65
2023/10/07 06:13:37;;;;;;;15.38;3.83;;;;;;;17.65;100.00;102026.84;5087310;28;20024;-63
2023/10/07 06:16:04;;;;;;;20.40;4.45;;;;;;;17.65;100.00;102026.84;5088852;28;20024;-58
2023/10/07 06:18:34;;;;;;;23.08;4.70;;;;;;;17.66;100.00;102024.13;5089714;28;20024;-66
2023/10/07 06:21:14;;;;;;;16.02;4.35;;;;;;;17.66;100.00;102021.47;5088384;28;20444;-66
2023/10/07 06:23:41;;;;;;;16.98;4.15;;;;;;;17.66;100.00;102023.25;5089524;28;20020;-68
2023/10/07 06:26:09;;;;;;;14.95;4.30;;;;;;;17.63;100.00;102020.72;5088287;28;20073;-69
2023/10/07 06:28:35;;;;;;;14.93;3.67;;;;;;;17.64;100.00;102020.66;5088757;28;20485;-68
2023/10/07 06:31:03;;;;;;;15.13;4.38;;;;;;;17.62;100.00;102005.66;5088582;28;20020;-63
2023/10/07 06:33:31;;;;;;;18.33;4.55;;;;;;;17.58;100.00;102006.75;5089292;28;20035;-64
2023/10/07 06:35:59;;;;;;;16.20;4.65;;;;;;;17.62;100.00;101995.88;5087304;28;20454;-65
2023/10/07 06:38:24;;;;;;;14.20;4.65;;;;;;;17.60;100.00;102012.84;5088458;28;20028;-66
2023/10/07 06:40:53;;;;;;;19.23;4.95;;;;;;;17.68;100.00;102016.94;5088780;28;20020;-64
2023/10/07 06:43:20;;;;;;;17.10;4.05;;;;;;;17.65;100.00;102011.75;5088031;28;20039;-64
2023/10/07 06:45:47;;;;;;;;;;;;;;;17.60;100.00;102007.53;5091116;28;20424;-64
2023/10/07 06:48:12;;;;;;;17.85;4.45;;;;;;;17.73;100.00;102011.38;5090375;28;19918;-70
2023/10/07 06:50:43;;;;;;;16.27;5.10;;;;;;;17.75;100.00;102024.63;5088563;28;20030;-61
2023/10/07 06:53:11;;;;;;;18.63;4.32;;;;;;;17.76;100.00;102024.56;5086784;28;20024;-63
2023/10/07 06:55:44;;;;;;;25.98;5.25;;;;;;;17.85;100.00;102043.75;5087552;28;20023;-67
2023/10/07 06:58:11;;;;;;;19.77;4.88;;;;;;;17.89;100.00;102043.53;5088376;28;20024;-61
2023/10/07 11:15:13;;;;;;;12.63;4.20;;;;;;;21.76;96.83;102139.28;3417110;23;20124;-66
2023/10/07 11:17:52;;;;;;;22.20;4.80;;;;;;;21.88;95.33;102157.28;5069720;28;20512;-59
2023/10/07 11:20:19;;;;;;;15.90;4.50;;;;;;;22.07;94.77;102146.25;5070765;28;20473;-64
2023/10/07 11:22:44;;;;;;;20.95;4.75;;;;;;;22.30;93.89;102138.59;5070240;28;20103;-60
2023/10/07 11:25:14;;;;;;;14.85;4.53;;;;;;;22.42;92.99;102139.63;5053081;28;20119;-63
2023/10/07 11:27:42;;;;;;;18.50;4.38;;;;;;;22.52;92.37;102145.28;5070208;28;20028;-62
2023/10/07 11:30:11;;;;;;;13.32;4.13;;;;;;;22.33;92.85;102154.50;5069799;28;20470;-63
2023/10/07 11:32:40;;;;;;;18.05;4.13;;;;;;;22.37;92.54;102147.13;5070181;28;20039;-63
2023/10/07 11:35:19;;;;;;;15.32;4.32;;;;;;;22.44;92.18;102142.22;5070789;28;20020;-68
2023/10/07 11:37:57;;;;;;;17.40;4.80;;;;;;;22.62;91.23;102140.19;5052037;28;20029;-63
2023/10/07 11:40:27;;;;;;;18.33;5.25;;;;;;;22.63;90.09;102133.03;5070646;28;20728;-63
2023/10/07 11:42:53;;;;;;;13.35;3.95;;;;;;;22.78;90.00;102148.13;5069715;28;20398;-65
2023/10/07 11:45:22;;;;;;;19.67;4.57;;;;;;;22.71;89.91;102139.59;5068930;28;20031;-64
2023/10/07 11:47:50;;;;;;;12.05;3.97;;;;;;;22.94;90.01;102145.28;5066443;28;20032;-63
2023/10/07 11:50:18;;;;;;;16.27;4.82;;;;;;;22.99;88.90;102152.19;5065380;28;20035;-62
2023/10/07 11:52:43;;;;;;;12.05;4.47;;;;;;;22.96;89.37;102145.16;5060417;28;20028;-63
2023/10/07 11:55:09;;;;;;;13.75;3.90;;;;;;;22.96;87.98;102147.84;5070049;28;20020;-60
2023/10/07 11:57:37;;;;;;;15.20;4.30;;;;;;;22.94;88.69;102141.75;5070277;28;20016;-62
2023/10/07 12:00:09;;;;;;;11.63;3.78;;;;;;;22.84;89.00;102171.03;5051471;28;20458;-64
2023/10/07 12:02:35;;;;;;;14.88;4.35;;;;;;;22.44;89.84;102163.69;5069506;28;20029;-61
2023/10/07 12:05:00;;;;;;;11.18;4.38;;;;;;;22.25;91.77;102156.81;5069306;28;20420;-62
2023/10/07 12:07:29;;;;;;;15.32;4.50;;;;;;;22.29;92.80;102171.78;5069305;28;20029;-65
2023/10/07 12:09:55;;;;;;;10.90;3.97;;;;;;;22.16;91.84;102154.72;5068918;28;20108;-66
2023/10/07 12:12:20;;;;;;;15.57;4.88;;;;;;;22.42;91.55;102161.09;5054356;28;20108;-65
2023/10/07 12:14:47;;;;;;;15.15;4.57;;;;;;;22.41;91.11;102156.72;5036551;28;20021;-73
2023/10/07 12:17:16;;;;;;;22.33;4.95;;;;;;;22.66;90.39;102151.63;5066335;28;20028;-62
2023/10/07 12:19:41;;;;;;;15.27;5.00;;;;;;;22.70;89.93;102148.59;5069565;28;20016;-58
2023/10/07 12:22:07;;;;;;;13.80;4.78;;;;;;;22.59;88.80;102140.41;5069009;28;20032;-59
2023/10/07 12:24:33;;;;;;;14.77;4.55;;;;;;;22.51;90.43;102131.97;5069934;28;20020;-60
2023/10/07 12:26:59;;;;;;;18.85;4.60;;;;;;;22.55;90.79;102128.94;5069861;28;20073;-59
2023/10/07 12:29:26;;;;;;;15.90;4.22;;;;;;;22.88;91.32;102126.03;5068632;28;20071;-58
2023/10/07 12:31:51;;;;;;;14.70;4.40;;;;;;;23.15;89.94;102119.75;5069182;28;20023;-65
2023/10/07 12:34:17;;;;;;;15.02;4.82;;;;;;;23.40;88.64;102120.81;5069563;28;20021;-64
2023/10/07 12:36:42;;;;;;;13.63;5.20;;;;;;;23.59;86.11;102128.47;5059871;28;20032;-65
2023/10/07 12:39:11;;;;;;;20.33;5.45;;;;;;;24.01;83.99;102148.91;5065451;28;20036;-66
2023/10/07 12:41:39;;;;;;;;;;;;;;;24.06;81.33;102144.94;5069833;28;20035;-63
2023/10/07 12:44:08;;;;;;;;;;;;;;;24.25;80.07;102116.69;5069915;28;19966;-64
2023/10/07 12:46:35;;;;;;;13.27;4.18;;;;;;;24.43;79.05;102127.97;5068074;28;19913;-65
2023/10/07 12:49:01;;;;;;;16.00;4.15;;;;;;;24.67;79.08;102129.84;5069235;28;20035;-66
2023/10/07 12:51:26;;;;;;;11.27;4.55;;;;;;;24.13;80.54;102142.69;5065260;28;20025;-62
2023/10/07 12:53:56;;;;;;;10.35;4.60;;;;;;;23.64;82.12;102155.91;5041321;28;20036;-61
2023/10/07 12:56:22;;;;;;;14.38;4.45;;;;;;;23.17;85.74;102134.81;5055769;28;20109;-62
2023/10/07 12:58:48;;;;;;;14.68;4.65;;;;;;;22.87;87.82;102114.41;5069006;28;20106;-66
2023/10/07 13:01:14;;;;;;;13.98;4.78;;;;;;;22.75;88.93;102099.97;5061361;28;20457;-65
2023/10/07 13:03:47;;;;;;;13.93;4.82;;;;;;;22.93;90.19;102111.31;5057910;28;20090;-63
2023/10/07 13:06:14;;;;;;;17.88;4.55;;;;;;;22.81;90.35;102112.13;5049834;28;20021;-65
2023/10/07 13:08:40;;;;;;;12.73;4.53;;;;;;;23.04;89.85;102131.22;5068406;28;20486;-63
2023/10/07 13:11:13;;;;;;;18.35;4.93;;;;;;;22.88;89.58;102159.13;5069722;28;20032;-63
2023/10/07 13:13:39;;;;;;;20.13;5.28;;;;;;;22.38;93.43;102137.22;5057276;28;20098;-64
2023/10/07 13:16:11;;;;;;;20.85;4.50;;;;;;;22.19;95.41;102149.16;5054192;28;20123;-65
2023/10/07 13:18:41;;;;;;;13.00;4.35;;;;;;;22.20;96.92;102166.97;5072828;28;20505;-65
2023/10/07 13:21:19;;;;;;;18.52;4.72;;;;;;;21.88;99.01;102159.97;5073483;28;20017;-65
2023/10/07 13:23:45;;;;;;;12.38;4.95;;;;;;;22.13;98.60;102158.47;5071922;28;20028;-65
2023/10/07 13:26:11;;;;;;;14.77;4.63;;;;;;;22.46;95.88;102165.31;5065530;28;20025;-65
2023/10/07 13:28:39;;;;;;;15.13;4.50;;;;;;;22.39;96.87;102150.56;5066591;28;20116;-66
2023/10/07 13:31:07;;;;;;;22.67;5.72;;;;;;;22.44;96.67;102143.09;5053981;28;20026;-65
2023/10/07 13:33:33;;;;;;;14.93;4.60;;;;;;;22.62;95.11;102142.88;5054167;28;20468;-65
2023/10/07 13:35:58;;;;;;;14.50;4.60;;;;;;;22.57;93.77;102158.41;5072478;28;20116;-69
2023/10/07 13:38:24;;;;;;;15.75;4.45;;;;;;;22.37;94.29;102149.81;5071697;28;20108;-67
2023/10/07 13:40:50;;;;;;;20.38;5.40;;;;;;;21.90;95.92;102149.13;5071893;28;20032;-65
2023/10/07 13:43:15;;;;;;;16.17;5.25;;;;;;;21.89;97.54;102140.25;5072625;28;20115;-67
2023/10/07 13:45:40;;;;;;;19.20;5.25;;;;;;;21.69;98.99;102142.28;5070952;28;20067;-65
2023/10/07 13:48:07;;;;;;;16.23;4.78;;;;;;;21.67;100.00;102144.19;5072360;28;20033;-67
2023/10/07 13:50:33;;;;;;;16.10;4.93;;;;;;;21.53;99.75;102139.69;5072294;28;20028;-64
2023/10/07 13:55:33;;;;;;;20.63;4.72;;;;;;;21.78;100.00;102130.16;5072051;28;20033;-64
2023/10/07 13:58:04;;;;;;;14.95;5.07;;;;;;;21.91;100.00;102154.41;5071787;28;20036;-65
2023/10/07 14:03:20;;;;;;;18.83;5.20;;;;;;;21.71;100.00;102128.78;5071968;28;20109;-67
2023/10/07 14:05:50;;;;;;;16.30;4.68;;;;;;;21.55;100.00;102144.97;5058086;28;20082;-63
2023/10/07 14:08:19;;;;;;;21.75;5.07;;;;;;;21.58;100.00;102142.94;5071242;28;20533;-66
2023/10/07 14:10:55;;;;;;;20.05;5.03;;;;;;;21.75;100.00;102135.72;5071566;28;20439;-68
2023/10/07 14:13:24;;;;;;;19.88;5.32;;;;;;;22.14;100.00;102136.03;5059787;28;20028;-65
2023/10/07 14:15:51;;;;;;;22.23;5.00;;;;;;;22.93;96.86;102124.75;5069876;28;20033;-64
2023/10/07 14:18:23;;;;;;;16.52;4.72;;;;;;;23.52;92.35;102132.53;5071682;28;20028;-63
2023/10/07 14:20:56;;;;;;;20.92;4.57;;;;;;;24.10;88.19;102132.09;5071235;28;20107;-65
2023/10/07 14:23:22;;;;;;;23.55;5.90;;;;;;;24.23;85.37;102122.19;5070839;28;20028;-67
2023/10/07 14:25:49;;;;;;;15.75;4.90;;;;;;;23.94;87.54;102140.41;5070694;28;20401;-67
2023/10/07 14:28:19;;;;;;;20.75;5.03;;;;;;;24.11;87.30;102128.47;5071612;28;20056;-69
2023/10/07 14:30:48;;;;;;;21.63;5.38;;;;;;;24.03;86.62;102125.44;5069659;28;20021;-64
2023/10/07 14:33:14;;;;;;;17.73;5.00;;;;;;;23.75;87.33;102085.19;5057371;28;20541;-64
2023/10/07 14:35:40;;;;;;;13.68;4.60;;;;;;;23.57;89.39;102096.28;5071719;28;20717;-66
2023/10/07 14:38:09;;;;;;;17.42;5.20;;;;;;;23.31;91.95;102111.50;5069297;28;20394;-64
2023/10/07 14:40:36;;;;;;;20.65;5.30;;;;;;;23.09;93.47;102096.84;5070621;28;20059;-63
2023/10/07 14:43:04;;;;;;;18.83;5.53;;;;;;;22.88;95.34;102081.22;5070939;28;20029;-65
2023/10/07 14:45:29;;;;;;;20.60;4.97;;;;;;;22.54;97.48;102080.69;5059691;28;20036;-66
2023/10/07 14:47:55;;;;;;;23.95;5.82;;;;;;;22.21;99.28;102089.03;5050827;28;20025;-63
2023/10/07 14:50:20;;;;;;;22.35;5.35;;;;;;;21.95;100.00;102091.53;5061932;28;20608;-65
2023/10/07 14:52:48;;;;;;;19.40;5.47;;;;;;;21.76;100.00;102093.66;5070184;28;20523;-69
2023/10/07 14:55:13;;;;;;;15.98;5.00;;;;;;;21.62;100.00;102091.78;5070804;28;20028;-66
2023/10/07 14:57:39;;;;;;;21.55;5.57;;;;;;;21.34;100.00;102102.38;5070967;28;20100;-66
2023/10/07 15:00:10;;;;;;;22.08;6.05;;;;;;;21.23;100.00;102086.94;5051928;28;20023;-66
2023/10/07 15:02:37;;;;;;;18.98;5.10;;;;;;;21.17;100.00;102081.94;5070647;28;20024;-64
2023/10/07 15:05:05;;;;;;;21.30;5.13;;;;;;;21.15;100.00;102079.34;5071110;28;20121;-62
2023/10/07 15:07:31;;;;;;;19.55;4.75;;;;;;;21.05;100.00;102086.22;5066220;28;20029;-61
2023/10/07 15:09:56;;;;;;;16.88;5.45;;;;;;;21.01;100.00;102082.00;5063970;28;20107;-62
2023/10/07 15:12:23;;;;;;;24.35;5.43;;;;;;;20.99;100.00;102074.06;5051989;28;20510;-61
2023/10/07 15:14:48;;;;;;;17.08;5.03;;;;;;;20.97;100.00;102081.31;5050381;28;20033;-62
2023/10/07 15:17:15;;;;;;;17.38;4.82;;;;;;;20.93;100.00;102088.69;5044061;28;20024;-65
2023/10/07 15:19:40;;;;;;;22.02;5.55;;;;;;;20.90;100.00;102086.19;5069688;28;20111;-63
2023/10/07 15:22:06;;;;;;;19.70;5.40;;;;;;;20.93;100.00;102086.00;5070100;28;20108;-64
2023/10/07 15:24:34;;;;;;;22.80;5.28;;;;;;;20.84;100.00;102102.56;5070147;28;20490;-61
2023/10/07 15:26:59;;;;;;;17.58;5.60;;;;;;;20.85;100.00;102104.28;5070267;28;20027;-60
2023/10/07 15:29:27;;;;;;;22.45;5.38;;;;;;;20.57;100.00;102127.28;5052988;28;20112;-61
2023/10/07 15:31:53;;;;;;;22.17;5.35;;;;;;;20.60;100.00;102120.88;5057964;28;20029;-64
2023/10/07 15:34:19;;;;;;;25.70;5.75;;;;;;;20.51;100.00;102132.97;5066159;28;20028;-60
2023/10/07 15:36:44;;;;;;;21.63;5.43;;;;;;;20.40;100.00;102131.75;5068328;28;20549;-60
2023/10/07 15:39:10;;;;;;;24.20;5.30;;;;;;;20.44;100.00;102125.28;5069963;28;20021;-61
2023/10/07 15:41:35;;;;;;;18.40;5.28;;;;;;;20.37;100.00;102121.22;5069595;28;20036;-60
2023/10/07 15:44:01;;;;;;;21.25;5.45;;;;;;;20.37;100.00;102107.84;5069037;28;20064;-59
2023/10/07 15:46:26;;;;;;;26.27;5.15;;;;;;;20.35;100.00;102107.09;5069616;28;20489;-60
2023/10/07 15:48:57;;;;;;;18.50;4.93;;;;;;;20.40;100.00;102107.69;5069244;28;20039;-62
2023/10/07 15:51:24;;;;;;;21.33;5.18;;;;;;;20.52;100.00;102107.94;5069485;28;20033;-61
2023/10/07 15:53:49;;;;;;;18.45;5.22;;;;;;;20.58;100.00;102119.16;5065931;28;20051;-62
2023/10/07 15:56:17;;;;;;;17.15;5.53;;;;;;;20.74;100.00;102109.41;5069246;28;20475;-60
2023/10/07 15:58:44;;;;;;;30.63;5.90;;;;;;;20.92;100.00;102111.03;5069466;28;20025;-60
2023/10/07 16:01:10;;;;;;;22.77;5.28;;;;;;;21.04;100.00;102105.94;5068493;28;20052;-62
2023/10/07 16:03:40;;;;;;;18.20;5.10;;;;;;;20.96;100.00;102115.25;5069225;28;20048;-61
2023/10/07 16:06:07;;;;;;;26.95;6.45;;;;;;;21.05;100.00;102115.69;5069237;28;20462;-60
2023/10/07 16:08:33;;;;;;;29.05;5.50;;;;;;;20.75;100.00;102113.81;5068897;28;20442;-60